Time;durP1;ratioP1;P1;durP2;ratioP2;P2;SDS_P1;SDS_P2;PMS_P1;PMS_P2;Temp;Humidity;BMP_temperature;BMP_pressure;BME280_temperature;BME280_humidity;BME280_pressure;Samples;Min_cycle;Max_cycle;Signal;HPM_P1;HPM_P2
2022/04/04 00:00:04;;;;;;;6.53;3.40;;;2.30;99.90;;;;;;171335;28;1256;-72
2022/04/04 00:00:11;;;;;;;6.93;3.57;;;2.30;99.90;;;;;;171764;28;1552;-72
2022/04/04 00:00:17;;;;;;;6.73;3.57;;;2.30;99.90;;;;;;172157;28;1024;-72
2022/04/04 00:00:22;;;;;;;6.57;3.53;;;2.30;99.90;;;;;;172782;28;1067;-72
2022/04/04 00:00:28;;;;;;;6.07;3.40;;;2.30;99.90;;;;;;172540;28;881;-72
2022/04/04 00:00:34;;;;;;;6.13;3.47;;;2.30;99.90;;;;;;172471;28;1279;-72
2022/04/04 00:00:39;;;;;;;6.50;3.55;;;2.30;99.90;;;;;;171754;28;1976;-73
2022/04/04 00:00:46;;;;;;;6.93;3.60;;;2.30;99.90;;;;;;171976;28;1123;-72
2022/04/04 00:00:51;;;;;;;7.26;3.62;;;2.20;99.90;;;;;;171795;28;1332;-72
2022/04/04 00:00:57;;;;;;;7.43;3.70;;;2.30;99.90;;;;;;172108;28;1192;-72
2022/04/04 00:01:02;;;;;;;6.57;3.63;;;2.20;99.90;;;;;;171921;28;945;-72
2022/04/04 00:01:08;;;;;;;6.20;3.60;;;2.20;99.90;;;;;;172614;28;1162;-73
2022/04/04 00:01:13;;;;;;;5.93;3.47;;;2.20;99.90;;;;;;172238;28;1339;-72
2022/04/04 00:01:19;;;;;;;5.90;3.40;;;2.20;99.90;;;;;;171831;28;895;-72
2022/04/04 00:01:25;;;;;;;6.70;3.40;;;2.20;99.90;;;;;;171949;28;1098;-72
2022/04/04 00:01:30;;;;;;;6.63;3.40;;;2.20;99.90;;;;;;171878;28;804;-71
2022/04/04 00:01:36;;;;;;;6.70;3.45;;;2.20;99.90;;;;;;171937;28;1402;-72
2022/04/04 00:01:42;;;;;;;7.20;3.63;;;2.20;99.90;;;;;;171130;28;1244;-72
2022/04/04 00:01:48;;;;;;;7.94;3.72;;;2.20;99.90;;;;;;171625;28;970;-72
2022/04/04 00:01:54;;;;;;;7.30;3.80;;;2.20;99.90;;;;;;171535;28;1379;-72
2022/04/04 00:02:00;;;;;;;8.05;3.85;;;2.20;99.90;;;;;;171775;28;1250;-72
2022/04/04 00:02:05;;;;;;;8.30;3.97;;;2.20;99.90;;;;;;171316;28;1533;-72
2022/04/04 00:02:11;;;;;;;7.93;3.85;;;2.20;99.90;;;;;;170849;28;1626;-72
2022/04/04 00:02:17;;;;;;;6.90;3.67;;;2.20;99.90;;;;;;171802;28;997;-72
2022/04/04 00:02:22;;;;;;;7.13;3.75;;;2.20;99.90;;;;;;171174;28;1229;-72
2022/04/04 00:02:28;;;;;;;6.65;3.83;;;2.20;99.90;;;;;;171135;28;1241;-72
2022/04/04 00:02:33;;;;;;;6.57;3.83;;;2.20;99.90;;;;;;172302;28;1364;-72
2022/04/04 00:02:39;;;;;;;6.90;3.85;;;2.20;99.90;;;;;;171929;28;808;-71
2022/04/04 00:02:45;;;;;;;9.45;4.28;;;2.20;99.90;;;;;;171812;28;1049;-72
2022/04/04 00:02:51;;;;;;;9.00;4.17;;;2.20;99.90;;;;;;172521;28;1204;-72
2022/04/04 00:02:56;;;;;;;8.80;4.03;;;2.10;99.90;;;;;;171496;28;1016;-72
2022/04/04 00:03:02;;;;;;;8.70;3.90;;;2.10;99.90;;;;;;171012;28;1369;-72
2022/04/04 00:03:08;;;;;;;11.20;3.70;;;2.20;99.90;;;;;;171581;28;1469;-73
2022/04/04 00:03:14;;;;;;;10.03;3.40;;;2.20;99.90;;;;;;171645;28;1384;-72
2022/04/04 00:03:20;;;;;;;9.20;3.17;;;2.20;99.90;;;;;;171372;28;2912;-72
2022/04/04 00:03:25;;;;;;;9.23;3.20;;;2.20;99.90;;;;;;172033;28;1558;-72
2022/04/04 00:03:31;;;;;;;9.60;3.35;;;2.20;99.90;;;;;;172758;28;1760;-72
2022/04/04 00:03:36;;;;;;;7.17;3.43;;;2.20;99.90;;;;;;172330;28;1248;-72
2022/04/04 00:03:42;;;;;;;6.43;3.55;;;2.20;99.90;;;;;;173289;28;1119;-71
2022/04/04 00:03:48;;;;;;;6.73;3.73;;;2.20;99.90;;;;;;172319;28;893;-73
2022/04/04 00:03:53;;;;;;;6.95;3.90;;;2.20;99.90;;;;;;171228;28;1204;-72
2022/04/04 00:03:59;;;;;;;6.72;3.78;;;2.20;99.90;;;;;;172009;28;1403;-72
2022/04/04 00:04:04;;;;;;;6.67;3.63;;;2.20;99.90;;;;;;172085;28;1015;-72
2022/04/04 00:04:10;;;;;;;7.40;3.60;;;2.20;99.90;;;;;;172492;28;1333;-72
2022/04/04 00:04:15;;;;;;;7.07;3.60;;;2.20;99.90;;;;;;171110;28;1333;-72
2022/04/04 00:04:21;;;;;;;6.90;3.58;;;2.20;99.90;;;;;;171883;28;923;-72
2022/04/04 00:04:27;;;;;;;7.10;3.63;;;2.20;99.90;;;;;;171921;28;1056;-72
2022/04/04 00:04:32;;;;;;;7.23;3.73;;;2.20;99.90;;;;;;170558;28;1324;-72
2022/04/04 00:04:38;;;;;;;6.70;3.70;;;2.20;99.90;;;;;;170437;28;1621;-73
2022/04/04 00:04:43;;;;;;;6.87;3.80;;;2.20;99.90;;;;;;170715;28;1243;-72
2022/04/04 00:04:49;;;;;;;6.53;3.65;;;2.20;99.90;;;;;;171913;28;820;-72
2022/04/04 00:04:54;;;;;;;6.40;3.57;;;2.20;99.90;;;;;;171575;28;892;-72
2022/04/04 00:05:01;;;;;;;6.38;3.55;;;2.20;99.90;;;;;;172194;28;1342;-72
2022/04/04 00:05:07;;;;;;;6.03;3.53;;;2.20;99.90;;;;;;171732;28;1718;-72
2022/04/04 00:05:13;;;;;;;5.70;3.43;;;2.20;99.90;;;;;;171281;28;832;-73
2022/04/04 00:05:18;;;;;;;6.40;3.60;;;2.20;99.90;;;;;;172253;28;1269;-71
2022/04/04 00:05:24;;;;;;;7.70;3.88;;;2.20;99.90;;;;;;170984;28;1220;-71
2022/04/04 00:05:29;;;;;;;7.40;3.77;;;2.20;99.90;;;;;;171757;28;1418;-72
2022/04/04 00:05:36;;;;;;;8.40;3.90;;;2.20;99.90;;;;;;171273;28;1260;-72
2022/04/04 00:05:41;;;;;;;8.33;3.83;;;2.20;99.90;;;;;;171873;28;1466;-72
2022/04/04 00:05:48;;;;;;;8.25;3.70;;;2.20;99.90;;;;;;170516;28;1066;-72
2022/04/04 00:05:54;;;;;;;7.35;3.67;;;2.20;99.90;;;;;;171213;28;1347;-72
2022/04/04 00:05:59;;;;;;;7.47;3.63;;;2.20;99.90;;;;;;171691;28;1431;-72
2022/04/04 00:06:05;;;;;;;6.90;3.60;;;2.20;99.90;;;;;;171205;28;1180;-71
2022/04/04 00:06:10;;;;;;;7.07;3.60;;;2.20;99.90;;;;;;171773;28;1215;-72
2022/04/04 00:06:16;;;;;;;7.28;3.78;;;2.20;99.90;;;;;;171769;28;1505;-72
2022/04/04 00:06:22;;;;;;;6.68;3.53;;;2.20;99.90;;;;;;171286;28;1427;-71
2022/04/04 00:06:30;;;;;;;7.00;3.65;;;2.20;99.90;;;;;;171870;28;1352;-73
2022/04/04 00:06:35;;;;;;;6.74;3.60;;;2.20;99.90;;;;;;171943;28;986;-72
2022/04/04 00:06:41;;;;;;;6.45;3.60;;;2.10;99.90;;;;;;171940;28;1454;-72
2022/04/04 00:06:46;;;;;;;6.03;3.60;;;2.20;99.90;;;;;;170499;28;1458;-72
2022/04/04 00:06:52;;;;;;;5.70;3.50;;;2.10;99.90;;;;;;170297;29;1411;-72
2022/04/04 00:06:59;;;;;;;5.50;3.50;;;2.10;99.90;;;;;;171242;28;1216;-73
2022/04/04 00:07:05;;;;;;;6.33;3.87;;;2.10;99.90;;;;;;170458;28;1341;-71
2022/04/04 00:07:11;;;;;;;6.30;3.88;;;2.10;99.90;;;;;;170882;28;923;-72
2022/04/04 00:07:16;;;;;;;6.43;3.87;;;2.20;99.90;;;;;;171107;28;1351;-72
2022/04/04 00:07:22;;;;;;;7.00;4.07;;;2.10;99.90;;;;;;171108;28;1061;-72
2022/04/04 00:07:28;;;;;;;7.10;4.03;;;2.10;99.90;;;;;;171836;28;1362;-72
2022/04/04 00:07:33;;;;;;;6.68;3.78;;;2.10;99.90;;;;;;171759;28;1330;-72
2022/04/04 00:07:39;;;;;;;6.03;3.42;;;2.10;99.90;;;;;;171565;28;937;-72
2022/04/04 00:07:44;;;;;;;5.97;3.38;;;2.10;99.90;;;;;;172602;28;935;-71
2022/04/04 00:07:50;;;;;;;5.83;3.27;;;2.10;99.90;;;;;;171829;28;1199;-71
2022/04/04 00:07:56;;;;;;;5.82;3.25;;;2.10;99.90;;;;;;172254;28;966;-72
2022/04/04 00:08:01;;;;;;;6.13;3.33;;;2.10;99.90;;;;;;171392;28;981;-72
2022/04/04 00:08:07;;;;;;;6.20;3.47;;;2.10;99.90;;;;;;172387;28;1236;-72
2022/04/04 00:08:13;;;;;;;6.67;3.63;;;2.10;99.90;;;;;;171654;28;1383;-72
2022/04/04 00:08:18;;;;;;;6.77;3.70;;;2.10;99.90;;;;;;171321;28;1187;-72
2022/04/04 00:08:24;;;;;;;7.13;3.70;;;2.20;99.90;;;;;;170511;29;1564;-71
2022/04/04 00:08:30;;;;;;;7.82;3.85;;;2.20;99.90;;;;;;171635;28;1221;-72
2022/04/04 00:08:36;;;;;;;8.53;3.97;;;2.10;99.90;;;;;;171052;28;1319;-72
2022/04/04 00:08:41;;;;;;;8.57;4.00;;;2.10;99.90;;;;;;171094;28;1194;-72
2022/04/04 00:08:47;;;;;;;8.38;3.90;;;2.10;99.90;;;;;;170589;28;1385;-72
2022/04/04 00:08:53;;;;;;;7.90;3.85;;;2.10;99.90;;;;;;171335;28;1396;-72
2022/04/04 00:08:59;;;;;;;7.23;3.63;;;2.10;99.90;;;;;;172613;28;1273;-73
2022/04/04 00:09:04;;;;;;;6.38;3.58;;;2.10;99.90;;;;;;172566;28;808;-72
2022/04/04 00:09:10;;;;;;;6.82;3.70;;;2.10;99.90;;;;;;172089;28;1199;-71
2022/04/04 00:09:16;;;;;;;6.97;3.78;;;2.10;99.90;;;;;;172546;28;1286;-72
2022/04/04 00:09:21;;;;;;;7.33;3.77;;;2.10;99.90;;;;;;171703;28;1196;-71
2022/04/04 00:09:27;;;;;;;7.40;3.80;;;2.10;99.90;;;;;;171813;28;1372;-72
2022/04/04 00:09:32;;;;;;;7.47;3.80;;;2.10;99.90;;;;;;171693;28;1201;-72
2022/04/04 00:09:38;;;;;;;6.78;3.45;;;2.10;99.90;;;;;;171651;28;1650;-72
2022/04/04 00:09:45;;;;;;;6.30;3.30;;;2.10;99.90;;;;;;171890;28;1361;-71
2022/04/04 00:09:50;;;;;;;5.93;3.25;;;2.10;99.90;;;;;;171152;28;1386;-72
2022/04/04 00:09:56;;;;;;;5.75;3.28;;;2.10;99.90;;;;;;171308;28;777;-72
2022/04/04 00:10:02;;;;;;;6.13;3.40;;;2.10;99.90;;;;;;171312;28;1248;-72
2022/04/04 00:10:08;;;;;;;6.15;3.40;;;2.10;99.90;;;;;;172546;28;1240;-72
2022/04/04 00:10:14;;;;;;;6.80;3.63;;;2.10;99.90;;;;;;172197;28;1567;-73
2022/04/04 00:10:19;;;;;;;7.85;3.70;;;2.10;99.90;;;;;;171866;28;874;-73
2022/04/04 00:10:25;;;;;;;8.23;3.70;;;2.10;99.90;;;;;;171816;28;1446;-73
2022/04/04 00:10:31;;;;;;;8.50;3.78;;;2.10;99.90;;;;;;172467;28;1456;-72
2022/04/04 00:10:36;;;;;;;8.75;3.83;;;2.10;99.90;;;;;;171827;28;1292;-72
2022/04/04 00:10:42;;;;;;;8.13;3.60;;;2.00;99.90;;;;;;171199;28;1305;-72
2022/04/04 00:10:48;;;;;;;7.47;3.65;;;2.10;99.90;;;;;;171770;28;1922;-73
2022/04/04 00:10:53;;;;;;;7.40;3.73;;;2.00;99.90;;;;;;171387;28;1363;-72
2022/04/04 00:11:00;;;;;;;7.32;3.90;;;2.10;99.90;;;;;;170595;29;789;-72
2022/04/04 00:11:06;;;;;;;7.50;4.00;;;2.10;99.90;;;;;;171260;28;1046;-72
2022/04/04 00:11:12;;;;;;;8.50;4.03;;;2.00;99.90;;;;;;171065;28;1436;-72
2022/04/04 00:11:18;;;;;;;8.38;4.00;;;2.10;99.90;;;;;;171099;28;1383;-71
2022/04/04 00:11:23;;;;;;;8.23;3.93;;;2.10;99.90;;;;;;171179;28;1265;-71
2022/04/04 00:11:29;;;;;;;7.63;3.65;;;2.00;99.90;;;;;;170999;28;1749;-71
2022/04/04 00:11:34;;;;;;;7.40;3.60;;;2.10;99.90;;;;;;170314;28;1252;-73
2022/04/04 00:11:40;;;;;;;6.60;3.63;;;2.10;99.90;;;;;;170513;29;1034;-71
2022/04/04 00:11:46;;;;;;;6.55;3.55;;;2.10;99.90;;;;;;170673;28;990;-72
2022/04/04 00:11:51;;;;;;;6.63;3.60;;;2.10;99.90;;;;;;171033;28;1382;-72
2022/04/04 00:11:57;;;;;;;6.90;3.53;;;2.00;99.90;;;;;;171171;28;1620;-73
2022/04/04 00:12:03;;;;;;;8.30;3.60;;;2.10;99.90;;;;;;170740;28;1248;-72
2022/04/04 00:12:09;;;;;;;8.73;3.50;;;2.00;99.90;;;;;;171019;28;1215;-72
2022/04/04 00:12:15;;;;;;;8.63;3.60;;;2.00;99.90;;;;;;171185;28;1451;-72
2022/04/04 00:12:21;;;;;;;8.98;3.63;;;2.10;99.90;;;;;;171080;28;1671;-71
2022/04/04 00:12:27;;;;;;;9.07;3.70;;;2.00;99.90;;;;;;171984;28;1337;-72
2022/04/04 00:12:32;;;;;;;10.77;3.73;;;2.00;99.90;;;;;;171880;28;934;-72
2022/04/04 00:12:38;;;;;;;11.23;3.93;;;2.10;99.90;;;;;;171174;28;1202;-73
2022/04/04 00:12:43;;;;;;;12.10;3.78;;;2.10;99.90;;;;;;171309;28;1433;-72
2022/04/04 00:12:49;;;;;;;12.20;3.77;;;2.10;99.90;;;;;;171696;28;1354;-72
2022/04/04 00:12:54;;;;;;;12.10;3.75;;;2.10;99.90;;;;;;171788;28;1217;-72
2022/04/04 00:13:00;;;;;;;10.47;3.83;;;2.10;99.90;;;;;;171697;28;1311;-72
2022/04/04 00:13:06;;;;;;;10.27;3.70;;;2.10;99.90;;;;;;170978;28;1812;-72
2022/04/04 00:13:11;;;;;;;10.18;3.75;;;2.10;99.90;;;;;;170435;28;1297;-72
2022/04/04 00:13:17;;;;;;;9.90;3.90;;;2.10;99.90;;;;;;170555;28;2074;-72
2022/04/04 00:13:23;;;;;;;9.90;3.88;;;2.10;99.90;;;;;;170229;28;1204;-72
2022/04/04 00:13:29;;;;;;;10.10;3.88;;;2.10;99.90;;;;;;171074;28;1290;-72
2022/04/04 00:13:34;;;;;;;7.97;3.70;;;2.10;99.90;;;;;;171376;28;1628;-72
2022/04/04 00:13:40;;;;;;;8.10;3.77;;;2.00;99.90;;;;;;171762;28;1217;-71
2022/04/04 00:13:46;;;;;;;7.53;3.65;;;2.00;99.90;;;;;;170447;28;1458;-72
2022/04/04 00:13:52;;;;;;;7.72;3.80;;;2.00;99.90;;;;;;170325;29;1254;-72
2022/04/04 00:13:57;;;;;;;7.43;3.80;;;2.00;99.90;;;;;;170450;29;1689;-72
2022/04/04 00:14:03;;;;;;;7.32;3.80;;;2.00;99.90;;;;;;171399;28;1244;-73
2022/04/04 00:14:10;;;;;;;7.17;3.90;;;2.00;99.90;;;;;;172573;28;899;-71
2022/04/04 00:14:15;;;;;;;7.30;3.83;;;2.10;99.90;;;;;;171816;28;1523;-71
2022/04/04 00:14:21;;;;;;;7.57;3.70;;;2.10;99.90;;;;;;170449;29;1218;-71
2022/04/04 00:14:27;;;;;;;7.85;3.60;;;2.00;99.90;;;;;;171027;28;1366;-72
2022/04/04 00:14:33;;;;;;;9.32;3.80;;;2.00;99.90;;;;;;171638;28;1344;-72
2022/04/04 00:14:38;;;;;;;8.93;3.78;;;2.00;99.90;;;;;;171056;28;963;-72
2022/04/04 00:14:44;;;;;;;8.93;3.90;;;2.00;99.90;;;;;;170525;28;1150;-72
2022/04/04 00:14:50;;;;;;;8.27;4.10;;;2.00;99.90;;;;;;170623;29;789;-71
2022/04/04 00:14:56;;;;;;;7.82;4.10;;;2.00;99.90;;;;;;171498;28;1250;-71
2022/04/04 00:15:02;;;;;;;6.43;3.92;;;2.00;99.90;;;;;;171778;28;1196;-72
2022/04/04 00:15:08;;;;;;;6.50;3.90;;;2.00;99.90;;;;;;171035;28;1199;-72
2022/04/04 00:15:13;;;;;;;7.80;4.05;;;2.00;99.90;;;;;;171187;28;958;-72
2022/04/04 00:15:19;;;;;;;8.00;3.83;;;2.00;99.90;;;;;;171977;28;1011;-72
2022/04/04 00:15:25;;;;;;;7.93;3.92;;;2.00;99.90;;;;;;172487;28;1197;-72
2022/04/04 00:15:30;;;;;;;7.88;4.03;;;2.00;99.90;;;;;;170495;29;959;-72
2022/04/04 00:15:36;;;;;;;7.60;4.00;;;2.00;99.90;;;;;;172190;28;1059;-73
2022/04/04 00:15:41;;;;;;;6.45;3.80;;;2.00;99.90;;;;;;172565;28;891;-71
2022/04/04 00:15:47;;;;;;;6.27;3.83;;;2.00;99.90;;;;;;171104;28;1195;-72
2022/04/04 00:15:54;;;;;;;6.75;3.80;;;2.00;99.90;;;;;;172454;28;1296;-71
2022/04/04 00:15:59;;;;;;;7.60;3.87;;;2.00;99.90;;;;;;172048;28;1290;-72
2022/04/04 00:16:07;;;;;;;8.20;3.97;;;2.00;99.90;;;;;;171788;28;1288;-72
2022/04/04 00:16:13;;;;;;;8.50;4.00;;;2.00;99.90;;;;;;172426;28;1301;-72
2022/04/04 00:16:19;;;;;;;8.02;3.95;;;2.00;99.90;;;;;;172497;28;1223;-72
2022/04/04 00:16:24;;;;;;;7.05;3.92;;;2.00;99.90;;;;;;172322;28;1079;-73
2022/04/04 00:16:32;;;;;;;7.03;3.80;;;2.00;99.90;;;;;;171227;28;1603;-71
2022/04/04 00:16:38;;;;;;;6.53;3.82;;;2.00;99.90;;;;;;170994;28;2476;-72
2022/04/04 00:16:43;;;;;;;7.45;3.72;;;2.00;99.90;;;;;;171245;28;1104;-72
2022/04/04 00:16:49;;;;;;;7.53;3.70;;;2.00;99.90;;;;;;171000;28;1482;-72
2022/04/04 00:16:55;;;;;;;7.63;3.65;;;2.00;99.90;;;;;;170488;28;1213;-72
2022/04/04 00:17:00;;;;;;;7.57;3.72;;;2.00;99.90;;;;;;171662;28;1456;-72
2022/04/04 00:17:06;;;;;;;8.43;3.70;;;2.00;99.90;;;;;;171126;28;1262;-73
2022/04/04 00:17:11;;;;;;;7.97;3.70;;;2.00;99.90;;;;;;171719;28;1392;-72
2022/04/04 00:17:17;;;;;;;8.00;3.77;;;2.10;99.90;;;;;;171276;28;927;-72
2022/04/04 00:17:23;;;;;;;8.05;3.83;;;2.10;99.90;;;;;;171138;28;1244;-72
2022/04/04 00:17:28;;;;;;;8.48;3.90;;;2.00;99.90;;;;;;171054;28;1547;-71
2022/04/04 00:17:34;;;;;;;7.90;3.80;;;2.00;99.90;;;;;;171768;28;1450;-72
2022/04/04 00:17:40;;;;;;;7.25;3.80;;;2.00;99.90;;;;;;171164;28;1036;-74
2022/04/04 00:17:45;;;;;;;6.55;3.60;;;2.10;99.90;;;;;;171272;28;1195;-71
2022/04/04 00:17:51;;;;;;;6.60;3.67;;;2.10;99.90;;;;;;172542;28;1192;-72
2022/04/04 00:17:57;;;;;;;6.28;3.60;;;2.10;99.90;;;;;;171878;28;1416;-71
2022/04/04 00:18:13;;;;;;;6.30;3.70;;;2.10;99.90;;;;;;172250;28;1196;-72
2022/04/04 00:18:18;;;;;;;7.15;3.89;;;2.10;99.90;;;;;;172613;28;1326;-71
2022/04/04 00:18:24;;;;;;;7.80;4.07;;;2.10;99.90;;;;;;172373;28;1529;-72
2022/04/04 00:18:29;;;;;;;7.72;4.07;;;2.10;99.90;;;;;;171939;28;1232;-71
2022/04/04 00:18:35;;;;;;;7.63;4.10;;;2.10;99.90;;;;;;171931;28;895;-72
2022/04/04 00:18:40;;;;;;;7.55;4.20;;;2.10;99.90;;;;;;170535;28;1035;-72
2022/04/04 00:18:46;;;;;;;7.13;3.97;;;2.10;99.90;;;;;;170475;29;1304;-72
2022/04/04 00:18:51;;;;;;;7.03;3.97;;;2.10;99.90;;;;;;170364;28;940;-72
2022/04/04 00:18:57;;;;;;;7.40;3.95;;;2.00;99.90;;;;;;170892;28;1222;-72
2022/04/04 00:19:04;;;;;;;7.27;3.83;;;2.10;99.90;;;;;;170603;28;1764;-72
2022/04/04 00:19:10;;;;;;;7.18;3.80;;;2.00;99.90;;;;;;171942;28;1562;-71
2022/04/04 00:19:15;;;;;;;7.55;3.83;;;2.10;99.90;;;;;;171972;28;1058;-71
2022/04/04 00:19:22;;;;;;;7.73;3.83;;;2.00;99.90;;;;;;172150;28;1405;-71
2022/04/04 00:19:28;;;;;;;8.07;4.03;;;2.00;99.90;;;;;;171705;28;1553;-72
2022/04/04 00:19:33;;;;;;;8.77;4.20;;;2.00;99.90;;;;;;172068;28;886;-73
2022/04/04 00:19:39;;;;;;;8.90;4.37;;;2.10;99.90;;;;;;172109;28;1372;-72
2022/04/04 00:19:45;;;;;;;8.52;4.35;;;2.00;99.90;;;;;;169776;29;1305;-72
2022/04/04 00:19:51;;;;;;;8.40;4.20;;;2.10;99.90;;;;;;171686;28;1319;-72
2022/04/04 00:19:56;;;;;;;7.93;4.13;;;2.00;99.90;;;;;;171146;28;947;-71
2022/04/04 00:20:04;;;;;;;7.68;4.15;;;2.00;99.90;;;;;;171293;28;1143;-71
2022/04/04 00:20:11;;;;;;;8.54;4.02;;;2.00;99.90;;;;;;171857;28;982;-72
2022/04/04 00:20:16;;;;;;;8.58;4.00;;;2.00;99.90;;;;;;172247;28;1058;-73
2022/04/04 00:20:22;;;;;;;8.98;4.18;;;2.00;99.90;;;;;;172587;28;919;-73
2022/04/04 00:20:28;;;;;;;8.67;4.03;;;2.00;99.90;;;;;;171832;28;1187;-72
2022/04/04 00:20:34;;;;;;;8.30;4.00;;;2.00;99.90;;;;;;172627;28;903;-71
2022/04/04 00:20:41;;;;;;;7.27;4.00;;;2.00;99.90;;;;;;171913;28;1913;-71
2022/04/04 00:20:46;;;;;;;7.70;3.93;;;2.00;99.90;;;;;;172313;28;1166;-72
2022/04/04 00:20:52;;;;;;;7.50;3.80;;;2.00;99.90;;;;;;172058;28;1244;-72
2022/04/04 00:20:57;;;;;;;7.47;3.80;;;2.00;99.90;;;;;;171067;28;1488;-72
2022/04/04 00:21:04;;;;;;;7.37;3.70;;;2.00;99.90;;;;;;171025;28;1662;-72
2022/04/04 00:21:10;;;;;;;7.52;3.70;;;2.00;99.90;;;;;;170560;28;1100;-72
2022/04/04 00:21:16;;;;;;;7.22;3.85;;;2.00;99.90;;;;;;170645;29;804;-72
2022/04/04 00:21:22;;;;;;;7.00;3.88;;;2.00;99.90;;;;;;171889;28;1392;-72
2022/04/04 00:21:28;;;;;;;7.05;3.90;;;2.00;99.90;;;;;;171751;28;1483;-71
2022/04/04 00:21:33;;;;;;;7.03;3.93;;;2.00;99.90;;;;;;171341;28;1326;-72
2022/04/04 00:21:39;;;;;;;7.00;4.00;;;2.00;99.90;;;;;;171094;28;1227;-72
2022/04/04 00:21:45;;;;;;;6.80;3.87;;;2.00;99.90;;;;;;171582;28;1453;-71
2022/04/04 00:21:50;;;;;;;6.75;3.92;;;2.00;99.90;;;;;;171865;28;1052;-72
2022/04/04 00:21:56;;;;;;;6.82;3.97;;;2.00;99.90;;;;;;172542;28;1024;-72
2022/04/04 00:22:03;;;;;;;6.80;3.97;;;2.00;99.90;;;;;;172958;28;1043;-71
2022/04/04 00:22:08;;;;;;;6.50;3.93;;;2.00;99.90;;;;;;173175;28;1677;-71
2022/04/04 00:22:14;;;;;;;6.15;3.83;;;2.00;99.90;;;;;;171132;28;1349;-72
2022/04/04 00:22:20;;;;;;;6.03;3.70;;;2.00;99.90;;;;;;172562;28;859;-71
2022/04/04 00:22:25;;;;;;;6.10;3.80;;;2.00;99.90;;;;;;173499;28;1247;-72
2022/04/04 00:22:31;;;;;;;5.87;3.77;;;2.00;99.90;;;;;;171746;28;1321;-72
2022/04/04 00:22:36;;;;;;;5.85;3.70;;;2.00;99.90;;;;;;170478;28;1599;-72
2022/04/04 00:22:43;;;;;;;6.15;3.80;;;2.00;99.90;;;;;;170570;28;1490;-72
2022/04/04 00:22:49;;;;;;;6.03;3.73;;;2.00;99.90;;;;;;170464;29;1349;-72
2022/04/04 00:22:54;;;;;;;6.00;3.63;;;1.90;99.90;;;;;;170953;28;1216;-72
2022/04/04 00:23:00;;;;;;;6.05;3.65;;;2.00;99.90;;;;;;169809;29;1351;-72
2022/04/04 00:23:12;;;;;;;6.07;3.77;;;1.90;99.90;;;;;;171040;28;1313;-71
2022/04/04 00:23:18;;;;;;;6.18;3.91;;;2.00;99.90;;;;;;171933;28;2844;-72
2022/04/04 00:23:23;;;;;;;7.40;4.00;;;2.00;99.90;;;;;;171796;28;1336;-72
2022/04/04 00:23:29;;;;;;;7.75;4.20;;;2.00;99.90;;;;;;171546;28;1943;-72
2022/04/04 00:23:34;;;;;;;7.90;4.10;;;2.00;99.90;;;;;;171333;28;1356;-72
2022/04/04 00:23:40;;;;;;;7.72;4.03;;;2.00;99.90;;;;;;172164;28;1108;-72
2022/04/04 00:23:46;;;;;;;7.60;4.00;;;2.00;99.90;;;;;;172862;28;1129;-71
2022/04/04 00:23:52;;;;;;;6.98;3.90;;;2.00;99.90;;;;;;171779;28;1626;-72
2022/04/04 00:23:57;;;;;;;6.40;3.87;;;2.00;99.90;;;;;;171833;28;993;-73
2022/04/04 00:24:04;;;;;;;5.93;3.75;;;2.00;99.90;;;;;;172333;28;1043;-72
2022/04/04 00:24:09;;;;;;;6.83;3.67;;;2.00;99.90;;;;;;170701;28;2428;-72
2022/04/04 00:24:15;;;;;;;7.13;3.55;;;2.00;99.90;;;;;;171422;28;1373;-71
2022/04/04 00:24:20;;;;;;;6.93;3.53;;;2.00;99.90;;;;;;171900;28;868;-71
2022/04/04 00:24:27;;;;;;;6.80;3.50;;;2.00;99.90;;;;;;172064;28;1558;-72
2022/04/04 00:24:33;;;;;;;7.33;3.63;;;2.00;99.90;;;;;;172578;28;1599;-71
2022/04/04 00:24:38;;;;;;;6.68;3.70;;;2.00;99.90;;;;;;171690;28;1584;-72
2022/04/04 00:24:44;;;;;;;6.28;3.65;;;2.00;99.90;;;;;;171783;28;1403;-71
2022/04/04 00:24:49;;;;;;;6.80;3.63;;;2.00;99.90;;;;;;171063;28;1662;-71
2022/04/04 00:24:55;;;;;;;7.13;3.67;;;2.00;99.90;;;;;;172279;28;1026;-73
2022/04/04 00:25:01;;;;;;;7.67;3.80;;;2.00;99.90;;;;;;173291;28;1006;-72
2022/04/04 00:25:07;;;;;;;7.75;3.88;;;1.90;99.90;;;;;;171788;28;1233;-71
2022/04/04 00:25:12;;;;;;;9.32;3.97;;;1.90;99.90;;;;;;171907;28;1005;-72
2022/04/04 00:25:18;;;;;;;9.52;4.13;;;1.90;99.90;;;;;;172723;28;1198;-72
2022/04/04 00:25:23;;;;;;;9.37;4.20;;;1.90;99.90;;;;;;171018;28;1159;-72
2022/04/04 00:25:29;;;;;;;8.93;4.05;;;1.90;99.90;;;;;;171049;28;1059;-72
2022/04/04 00:25:35;;;;;;;8.23;3.97;;;1.90;99.90;;;;;;170925;28;1247;-71
2022/04/04 00:25:41;;;;;;;8.90;4.05;;;1.90;99.90;;;;;;173222;28;851;-72
2022/04/04 00:25:48;;;;;;;8.62;4.08;;;2.00;99.90;;;;;;172643;28;1057;-72
2022/04/04 00:25:54;;;;;;;8.63;4.03;;;1.90;99.90;;;;;;172451;28;1146;-72
2022/04/04 00:26:00;;;;;;;9.02;4.20;;;1.90;99.90;;;;;;171451;28;1395;-72
2022/04/04 00:26:05;;;;;;;8.30;4.10;;;1.90;99.90;;;;;;170479;28;1389;-72
2022/04/04 00:26:11;;;;;;;7.25;3.95;;;1.90;99.90;;;;;;170319;29;1505;-72
2022/04/04 00:26:17;;;;;;;7.20;4.00;;;2.00;99.90;;;;;;170520;29;840;-71
2022/04/04 00:26:22;;;;;;;7.55;4.20;;;2.00;99.90;;;;;;169729;29;993;-72
2022/04/04 00:26:28;;;;;;;7.72;4.15;;;1.90;99.90;;;;;;170302;29;1060;-71
2022/04/04 00:26:34;;;;;;;8.27;4.27;;;1.90;99.90;;;;;;170575;29;875;-71
2022/04/04 00:26:40;;;;;;;9.03;4.57;;;2.00;99.90;;;;;;170421;29;1037;-71
2022/04/04 00:26:46;;;;;;;8.95;4.47;;;1.90;99.90;;;;;;171129;28;1115;-72
2022/04/04 00:26:51;;;;;;;8.77;4.40;;;2.00;99.90;;;;;;171624;28;1211;-71
2022/04/04 00:26:57;;;;;;;8.48;4.47;;;1.90;99.90;;;;;;171109;28;1332;-72
2022/04/04 00:27:03;;;;;;;8.13;4.32;;;2.00;99.90;;;;;;170425;29;1186;-71
2022/04/04 00:27:08;;;;;;;7.97;4.10;;;1.90;99.90;;;;;;170326;29;1368;-72
2022/04/04 00:27:14;;;;;;;7.85;4.00;;;1.90;99.90;;;;;;170544;29;848;-71
2022/04/04 00:27:20;;;;;;;7.63;4.03;;;1.90;99.90;;;;;;170053;29;1246;-72
2022/04/04 00:27:26;;;;;;;8.03;4.10;;;1.90;99.90;;;;;;170477;29;1262;-71
2022/04/04 00:27:31;;;;;;;8.33;4.17;;;1.90;99.90;;;;;;170353;29;1072;-71
2022/04/04 00:27:37;;;;;;;9.10;4.22;;;2.00;99.90;;;;;;170519;29;852;-71
2022/04/04 00:27:42;;;;;;;9.83;4.37;;;1.90;99.90;;;;;;171028;28;1165;-72
2022/04/04 00:27:50;;;;;;;9.68;4.22;;;2.00;99.90;;;;;;171017;28;1269;-71
2022/04/04 00:27:56;;;;;;;9.22;3.93;;;2.00;99.90;;;;;;170830;28;1095;-73
2022/04/04 00:28:01;;;;;;;8.60;3.77;;;2.00;99.90;;;;;;170959;28;939;-72
2022/04/04 00:28:07;;;;;;;7.97;3.75;;;2.00;99.90;;;;;;171218;28;1026;-71
2022/04/04 00:28:13;;;;;;;6.57;3.60;;;2.00;99.90;;;;;;171602;28;1125;-71
2022/04/04 00:28:19;;;;;;;6.80;3.45;;;2.00;99.90;;;;;;171790;28;1679;-71
2022/04/04 00:28:25;;;;;;;7.35;3.65;;;2.00;99.90;;;;;;171712;28;1114;-72
2022/04/04 00:28:31;;;;;;;7.93;3.63;;;1.90;99.90;;;;;;172505;28;1354;-72
2022/04/04 00:28:37;;;;;;;7.85;3.55;;;2.00;99.90;;;;;;172451;28;1140;-72
2022/04/04 00:28:42;;;;;;;9.67;3.73;;;1.90;99.90;;;;;;171594;28;1498;-71
2022/04/04 00:28:49;;;;;;;9.88;3.95;;;1.90;99.90;;;;;;172459;28;1331;-71
2022/04/04 00:28:55;;;;;;;9.80;3.97;;;1.90;99.90;;;;;;171528;28;1443;-72
2022/04/04 00:29:00;;;;;;;9.27;4.10;;;2.00;99.90;;;;;;171069;28;1671;-72
2022/04/04 00:29:06;;;;;;;9.88;4.38;;;2.00;99.90;;;;;;170989;28;1313;-72
2022/04/04 00:29:11;;;;;;;8.70;4.43;;;2.00;99.90;;;;;;170477;29;987;-72
2022/04/04 00:29:18;;;;;;;8.93;4.40;;;2.00;99.90;;;;;;170365;29;1106;-73
2022/04/04 00:29:25;;;;;;;7.87;4.20;;;2.00;99.90;;;;;;170625;29;920;-72
2022/04/04 00:29:31;;;;;;;7.57;4.17;;;2.00;99.90;;;;;;169991;28;1656;-72
2022/04/04 00:29:36;;;;;;;6.67;3.83;;;2.00;99.90;;;;;;170577;29;883;-72
2022/04/04 00:29:42;;;;;;;6.38;3.53;;;2.00;99.90;;;;;;171163;28;1001;-73
2022/04/04 00:29:47;;;;;;;7.07;3.70;;;2.00;99.90;;;;;;170093;29;1040;-71
2022/04/04 00:29:53;;;;;;;8.13;3.90;;;2.00;99.90;;;;;;171875;28;1329;-71
2022/04/04 00:29:58;;;;;;;8.55;4.03;;;1.90;99.90;;;;;;171965;28;1822;-71
2022/04/04 00:30:05;;;;;;;9.87;4.10;;;1.90;99.90;;;;;;172437;28;1011;-72
2022/04/04 00:30:10;;;;;;;10.77;4.40;;;1.90;99.90;;;;;;171975;28;930;-72
2022/04/04 00:30:16;;;;;;;10.35;4.43;;;1.90;99.90;;;;;;171726;28;1296;-72
2022/04/04 00:30:22;;;;;;;9.50;4.20;;;1.90;99.90;;;;;;172465;28;1347;-72
2022/04/04 00:30:28;;;;;;;9.48;4.15;;;1.90;99.90;;;;;;170953;28;1119;-72
2022/04/04 00:30:33;;;;;;;8.37;4.10;;;1.90;99.90;;;;;;171054;28;1088;-72
2022/04/04 00:30:39;;;;;;;7.85;4.00;;;1.90;99.90;;;;;;171010;28;1431;-72
2022/04/04 00:30:45;;;;;;;7.55;4.00;;;1.90;99.90;;;;;;171242;28;1038;-71
2022/04/04 00:30:50;;;;;;;7.63;3.90;;;1.90;99.90;;;;;;170886;28;1344;-72
2022/04/04 00:30:56;;;;;;;7.97;4.03;;;1.90;99.90;;;;;;170588;29;852;-71
2022/04/04 00:31:02;;;;;;;7.80;4.00;;;1.90;99.90;;;;;;170855;28;2001;-73
2022/04/04 00:31:07;;;;;;;7.87;4.00;;;1.90;99.90;;;;;;170987;28;1300;-72
2022/04/04 00:31:13;;;;;;;7.35;3.80;;;1.90;99.90;;;;;;170499;29;1397;-71
2022/04/04 00:31:18;;;;;;;6.90;3.73;;;1.90;99.90;;;;;;171003;28;1168;-71
2022/04/04 00:31:24;;;;;;;6.85;3.65;;;1.90;99.90;;;;;;171042;28;1403;-71
2022/04/04 00:31:29;;;;;;;7.10;3.67;;;1.90;99.90;;;;;;172220;28;1234;-72
2022/04/04 00:31:35;;;;;;;7.33;3.93;;;1.90;99.90;;;;;;172502;28;1063;-72
2022/04/04 00:31:41;;;;;;;7.60;4.05;;;1.90;99.90;;;;;;172531;28;902;-73